Time;durP1;ratioP1;P1;durP2;ratioP2;P2;SDS_P1;SDS_P2;PMS_P1;PMS_P2;Temp;Humidity;BMP_temperature;BMP_pressure;BME280_temperature;BME280_humidity;BME280_pressure;Samples;Min_cycle;Max_cycle;Signal;HPM_P1;HPM_P2
2022/03/11 00:01:42;;;;;;;;;;;5.90;91.10;;;;;;6302133;22;19915;-87
2022/03/11 00:04:09;;;;;;;;;;;5.80;91.10;;;;;;6307620;22;19921;-88
2022/03/11 00:06:54;;;;;;;;;;;5.80;90.10;;;;;;6280078;22;19911;-86
2022/03/11 00:10:04;;;;;;;;;;;6.00;93.00;;;;;;6305313;22;19918;-87
2022/03/11 00:12:31;;;;;;;;;;;5.70;92.30;;;;;;6310503;22;19944;-87
2022/03/11 00:15:01;;;;;;;;;;;5.70;93.90;;;;;;6315555;22;19910;-88
2022/03/11 00:17:42;;;;;;;;;;;6.50;94.60;;;;;;6316531;22;19918;-87
2022/03/11 00:20:11;;;;;;;;;;;5.60;95.10;;;;;;6335514;22;20314;-86
2022/03/11 00:22:37;;;;;;;;;;;5.60;93.10;;;;;;6305550;22;19915;-88
2022/03/11 00:25:21;;;;;;;;;;;5.50;94.30;;;;;;6333990;22;19968;-87
2022/03/11 00:27:47;;;;;;;;;;;5.40;94.10;;;;;;6307067;22;19914;-86
2022/03/11 00:30:32;;;;;;;;;;;5.40;94.20;;;;;;6303818;22;20212;-88
2022/03/11 00:33:13;;;;;;;;;;;5.40;94.70;;;;;;6303831;22;19926;-89
2022/03/11 00:35:42;;;;;;;;;;;4.90;96.50;;;;;;6305660;22;19914;-88
2022/03/11 00:38:08;;;;;;;;;;;5.30;97.50;;;;;;6332561;22;20275;-89
2022/03/11 00:40:51;;;;;;;;;;;5.20;96.70;;;;;;6306218;22;20131;-88
2022/03/11 00:43:19;;;;;;;;;;;6.00;97.20;;;;;;6308577;22;20425;-87
2022/03/11 00:45:48;;;;;;;;;;;5.40;98.10;;;;;;6304991;22;19957;-87
2022/03/11 00:48:14;;;;;;;;;;;3.70;97.40;;;;;;6305141;22;19961;-87
2022/03/11 00:51:04;;;;;;;;;;;5.10;96.50;;;;;;6333059;22;19914;-85
2022/03/11 00:53:29;;;;;;;;;;;5.10;96.70;;;;;;6303566;22;19975;-86
2022/03/11 00:56:18;;;;;;;;;;;5.10;96.60;;;;;;6331879;22;19922;-87
2022/03/11 00:58:46;;;;;;;;;;;5.50;97.70;;;;;;6298141;22;19926;-85
2022/03/11 01:01:37;;;;;;;;;;;5.10;98.50;;;;;;6304015;22;20281;-86
2022/03/11 01:04:17;;;;;;;;;;;5.10;98.30;;;;;;6303217;22;19914;-87
2022/03/11 01:06:43;;;;;;;;;;;5.00;97.10;;;;;;6306019;22;20316;-87
2022/03/11 01:09:08;;;;;;;;;;;5.10;99.60;;;;;;6299431;22;19915;-87
2022/03/11 01:11:34;;;;;;;;;;;5.10;98.50;;;;;;6300256;22;19918;-85
2022/03/11 01:14:18;;;;;;;;;;;6.20;99.60;;;;;;6299119;22;19918;-85
2022/03/11 01:16:44;;;;;;;;;;;5.00;97.50;;;;;;6274361;22;19922;-87
2022/03/11 01:19:23;;;;;;;;;;;5.00;99.70;;;;;;6298913;22;20001;-86
2022/03/11 01:21:49;;;;;;;;;;;4.60;98.90;;;;;;6299569;22;19919;-87
2022/03/11 01:24:14;;;;;;;;;;;5.00;98.90;;;;;;6300069;22;19994;-87
2022/03/11 01:27:02;;;;;;;;;;;4.90;99.70;;;;;;6299690;22;20290;-86
2022/03/11 01:29:29;;;;;;;;;;;4.90;99.90;;;;;;6298610;22;20256;-86
2022/03/11 01:32:13;;;;;;;;;;;4.80;99.90;;;;;;6298377;22;20678;-86
2022/03/11 01:34:38;;;;;;;;;;;4.60;99.90;;;;;;6298357;22;19954;-86
2022/03/11 01:37:07;;;;;;;;;;;5.80;99.90;;;;;;6299884;22;19961;-87
2022/03/11 01:39:49;;;;;;;;;;;4.70;99.90;;;;;;6300573;22;19915;-87
2022/03/11 01:42:15;;;;;;;;;;;4.70;99.90;;;;;;6301420;22;19969;-87
2022/03/11 01:44:40;;;;;;;;;;;4.60;99.90;;;;;;6302849;22;19926;-87
2022/03/11 01:47:08;;;;;;;;;;;4.50;99.90;;;;;;6300126;22;19916;-87
2022/03/11 01:49:44;;;;;;;;;;;4.50;99.90;;;;;;6303113;22;19981;-86
2022/03/11 01:52:12;;;;;;;;;;;2.80;99.90;;;;;;6300253;22;20177;-87
2022/03/11 01:54:42;;;;;;;;;;;4.40;99.90;;;;;;6277355;22;20291;-86
2022/03/11 01:57:08;;;;;;;;;;;4.50;99.90;;;;;;6303635;22;20037;-89
2022/03/11 01:59:59;;;;;;;;;;;5.90;99.90;;;;;;6305714;22;20022;-86
2022/03/11 02:02:50;;;;;;;;;;;4.20;99.90;;;;;;6306077;22;20009;-86
2022/03/11 02:05:17;;;;;;;;;;;4.60;99.90;;;;;;6306010;22;20036;-86
2022/03/11 02:08:07;;;;;;;;;;;4.20;99.90;;;;;;6316155;22;19913;-85
2022/03/11 02:10:43;;;;;;;;;;;4.20;99.50;;;;;;6309139;22;19918;-85
2022/03/11 02:13:08;;;;;;;;;;;3.10;99.90;;;;;;6338405;22;20214;-85
2022/03/11 02:15:34;;;;;;;;;;;5.20;99.90;;;;;;6306907;22;19957;-87
2022/03/11 02:18:24;;;;;;;;;;;4.30;99.90;;;;;;6308076;22;20344;-87
2022/03/11 02:20:50;;;;;;;;;;;4.20;99.90;;;;;;6306479;22;19914;-88
2022/03/11 02:23:17;;;;;;;;;;;4.20;99.90;;;;;;6305725;22;19949;-85
2022/03/11 02:26:01;;;;;;;;;;;4.20;99.90;;;;;;6307397;22;19919;-86
2022/03/11 02:28:33;;;;;;;;;;;4.70;99.90;;;;;;6332489;22;20421;-85
2022/03/11 02:31:15;;;;;;;;;;;4.20;99.90;;;;;;6279221;22;19956;-86
2022/03/11 02:33:40;;;;;;;;;;;4.20;99.90;;;;;;6305570;22;20745;-87
2022/03/11 02:36:06;;;;;;;;;;;4.10;99.90;;;;;;6304379;22;19919;-87
2022/03/11 02:38:32;;;;;;;;;;;6.30;99.90;;;;;;6306407;22;19914;-86
2022/03/11 02:41:12;;;;;;;;;;;4.50;99.90;;;;;;6305442;22;19921;-89
2022/03/11 02:43:38;;;;;;;;;;;4.10;99.90;;;;;;6303219;22;19934;-87
2022/03/11 02:46:06;;;;;;;;;;;4.10;99.90;;;;;;6305417;22;19922;-86
2022/03/11 02:48:50;;;;;;;;;;;6.00;99.90;;;;;;6331108;22;19933;-86
2022/03/11 02:51:15;;;;;;;;;;;4.30;99.90;;;;;;6305920;22;19964;-89
2022/03/11 02:53:45;;;;;;;;;;;4.10;99.90;;;;;;6307572;22;19967;-86
2022/03/11 02:56:25;;;;;;;;;;;3.90;99.90;;;;;;6335726;22;19921;-86
2022/03/11 02:58:51;;;;;;;;;;;2.70;99.90;;;;;;6333530;22;19922;-87
2022/03/11 03:01:17;;;;;;;;;;;4.00;99.90;;;;;;6333597;22;19968;-85
2022/03/11 03:03:42;;;;;;;;;;;2.90;99.90;;;;;;6280741;22;19940;-84
2022/03/11 03:06:27;;;;;;;;;;;3.90;99.90;;;;;;6252339;22;20255;-87
2022/03/11 03:08:52;;;;;;;;;;;3.90;99.90;;;;;;6306755;22;20223;-86
2022/03/11 03:11:19;;;;;;;;;;;3.80;99.90;;;;;;6300208;22;19919;-87
2022/03/11 03:14:03;;;;;;;;;;;3.80;99.90;;;;;;6299457;22;19915;-88
2022/03/11 03:16:29;;;;;;;;;;;3.80;99.90;;;;;;6302812;22;20052;-86
2022/03/11 03:18:55;;;;;;;;;;;3.80;99.90;;;;;;6302484;22;19949;-86
2022/03/11 03:21:39;;;;;;;;;;;3.90;99.90;;;;;;6302983;22;19915;-85
2022/03/11 03:24:07;;;;;;;;;;;3.70;99.90;;;;;;6300930;22;19995;-86
2022/03/11 03:26:32;;;;;;;;;;;3.70;99.90;;;;;;6301465;22;19917;-86
2022/03/11 03:29:16;;;;;;;;;;;3.70;99.90;;;;;;6302594;22;19989;-85
2022/03/11 03:31:42;;;;;;;;;;;3.50;99.90;;;;;;6300088;22;19919;-89
2022/03/11 03:34:07;;;;;;;;;;;5.00;99.90;;;;;;6304732;22;20388;-86
2022/03/11 03:36:54;;;;;;;;;;;3.60;99.90;;;;;;6306055;22;19915;-89
2022/03/11 03:39:20;;;;;;;;;;;3.50;99.90;;;;;;6302819;22;19914;-85
2022/03/11 03:41:45;;;;;;;;;;;3.50;99.90;;;;;;6306658;22;19979;-88
2022/03/11 03:44:28;;;;;;;;;;;3.50;99.90;;;;;;6300526;22;19984;-86
2022/03/11 03:46:54;;;;;;;;;;;4.10;99.90;;;;;;6299864;22;19922;-85
2022/03/11 03:49:20;;;;;;;;;;;3.50;99.90;;;;;;6301830;22;19915;-86
2022/03/11 03:51:58;;;;;;;;;;;3.40;99.90;;;;;;6300825;22;19922;-86
2022/03/11 03:54:23;;;;;;;;;;;3.30;99.90;;;;;;6300447;22;19925;-86
2022/03/11 03:56:49;;;;;;;;;;;3.40;99.90;;;;;;6301451;22;19989;-94
2022/03/11 03:59:33;;;;;;;;;;;3.20;99.90;;;;;;6300686;22;19915;-86
2022/03/11 04:02:14;;;;;;;;;;;3.50;99.90;;;;;;6299931;22;19980;-86
2022/03/11 04:04:39;;;;;;;;;;;2.90;99.90;;;;;;6301039;22;19918;-86
2022/03/11 04:07:05;;;;;;;;;;;4.60;99.90;;;;;;6300041;22;19926;-86
2022/03/11 04:09:37;;;;;;;;;;;2.80;99.90;;;;;;6303731;22;19982;-86
2022/03/11 04:12:03;;;;;;;;;;;3.30;99.90;;;;;;6306159;22;19914;-84
2022/03/11 04:14:28;;;;;;;;;;;3.20;99.90;;;;;;6304333;22;19914;-86
2022/03/11 04:20:12;;;;;;;;;;;3.20;99.90;;;;;;6304427;22;19918;-87
2022/03/11 04:22:48;;;;;;;;;;;3.20;99.90;;;;;;6306690;22;19919;-88
2022/03/11 04:25:14;;;;;;;;;;;3.10;99.90;;;;;;6336452;22;20028;-89
2022/03/11 04:28:01;;;;;;;;;;;3.20;99.90;;;;;;6307286;22;19919;-85
2022/03/11 04:30:28;;;;;;;;;;;3.20;99.90;;;;;;6333357;22;20514;-86
2022/03/11 04:32:54;;;;;;;;;;;3.10;99.90;;;;;;6304746;22;19915;-85
2022/03/11 04:35:35;;;;;;;;;;;3.10;99.90;;;;;;6304693;22;20346;-84
2022/03/11 04:38:00;;;;;;;;;;;2.90;99.90;;;;;;6302370;22;19919;-84
2022/03/11 04:40:47;;;;;;;;;;;3.40;99.90;;;;;;6331418;22;19914;-85
2022/03/11 04:43:30;;;;;;;;;;;2.20;99.90;;;;;;6329119;22;19925;-87
2022/03/11 04:46:03;;;;;;;;;;;3.60;99.90;;;;;;6307048;22;19922;-92
2022/03/11 04:48:30;;;;;;;;;;;3.90;99.90;;;;;;6279629;22;19922;-87
2022/03/11 04:51:23;;;;;;;;;;;3.50;99.90;;;;;;6303915;22;20310;-88
2022/03/11 04:54:04;;;;;;;;;;;2.90;99.90;;;;;;6269689;22;19919;-85
2022/03/11 04:56:32;;;;;;;;;;;2.90;99.90;;;;;;6303279;22;19949;-85
2022/03/11 04:59:18;;;;;;;;;;;2.80;99.90;;;;;;6305683;22;20187;-89
2022/03/11 05:01:43;;;;;;;;;;;2.80;99.90;;;;;;6305631;22;20184;-85
2022/03/11 05:04:09;;;;;;;;;;;2.80;99.90;;;;;;6306506;22;19933;-85
2022/03/11 05:06:54;;;;;;;;;;;2.60;99.90;;;;;;6307163;22;19937;-85
2022/03/11 05:09:24;;;;;;;;;;;2.40;99.90;;;;;;6337231;22;19953;-85
2022/03/11 05:11:53;;;;;;;;;;;2.70;99.90;;;;;;6333846;22;19922;-89
2022/03/11 05:14:34;;;;;;;;;;;3.80;99.90;;;;;;6305142;22;19918;-88
2022/03/11 05:16:59;;;;;;;;;;;2.70;99.90;;;;;;6299210;22;19922;-86
2022/03/11 05:19:26;;;;;;;;;;;2.60;99.90;;;;;;6298719;22;20025;-86
2022/03/11 05:21:52;;;;;;;;;;;3.00;99.90;;;;;;6300202;22;19964;-88
2022/03/11 05:24:18;;;;;;;;;;;1.50;99.90;;;;;;6300404;22;19999;-86
2022/03/11 05:26:45;;;;;;;;;;;3.70;99.90;;;;;;6300093;22;20006;-85
2022/03/11 05:29:15;;;;;;;;;;;1.30;99.90;;;;;;6300633;22;19994;-87
2022/03/11 05:31:55;;;;;;;;;;;2.30;99.90;;;;;;6301665;22;19929;-88
2022/03/11 05:34:21;;;;;;;;;;;2.70;99.90;;;;;;6301556;22;20022;-87
2022/03/11 05:36:47;;;;;;;;;;;4.70;99.90;;;;;;6302179;22;20502;-86
2022/03/11 05:39:12;;;;;;;;;;;2.50;99.90;;;;;;6297185;22;19946;-86
2022/03/11 05:41:38;;;;;;;;;;;2.70;99.90;;;;;;6301029;22;19974;-87
2022/03/11 05:44:23;;;;;;;;;;;2.40;99.90;;;;;;6300118;22;19915;-87
2022/03/11 05:47:09;;;;;;;;;;;2.40;99.90;;;;;;6299092;22;20323;-86
2022/03/11 05:49:35;;;;;;;;;;;2.40;99.90;;;;;;6302008;22;19996;-86
2022/03/11 05:52:00;;;;;;;;;;;2.50;99.90;;;;;;6301261;22;19918;-87
2022/03/11 05:54:45;;;;;;;;;;;3.10;99.90;;;;;;6300439;22;20028;-87
2022/03/11 05:57:10;;;;;;;;;;;2.30;99.90;;;;;;6300356;22;20314;-86
2022/03/11 05:59:36;;;;;;;;;;;2.30;99.90;;;;;;6273798;22;19919;-86
2022/03/11 06:02:03;;;;;;;;;;;2.30;99.90;;;;;;6298453;22;19919;-85
2022/03/11 06:04:49;;;;;;;;;;;2.30;99.90;;;;;;6257826;22;20498;-86
2022/03/11 06:07:19;;;;;;;;;;;2.20;99.90;;;;;;6307280;22;19921;-86
2022/03/11 06:09:45;;;;;;;;;;;2.30;99.90;;;;;;6274158;22;20060;-85
2022/03/11 06:12:26;;;;;;;;;;;2.00;99.90;;;;;;6300360;22;19957;-88
2022/03/11 06:17:32;;;;;;;;;;;2.20;99.90;;;;;;6331858;22;19914;-86
2022/03/11 06:19:59;;;;;;;;;;;2.20;99.90;;;;;;6303972;22;19915;-89
2022/03/11 06:22:25;;;;;;;;;;;2.20;99.90;;;;;;6303720;22;20052;-86
2022/03/11 06:24:50;;;;;;;;;;;2.30;99.90;;;;;;6302930;22;19991;-89
2022/03/11 06:27:31;;;;;;;;;;;1.90;99.90;;;;;;6306838;22;19917;-89
2022/03/11 06:29:57;;;;;;;;;;;0.90;99.90;;;;;;6307331;22;20190;-88
2022/03/11 06:32:22;;;;;;;;;;;2.30;99.90;;;;;;6331653;22;19934;-86
2022/03/11 06:34:48;;;;;;;;;;;2.40;99.90;;;;;;6305704;22;19987;-88
2022/03/11 06:37:14;;;;;;;;;;;5.20;99.90;;;;;;6305898;22;20187;-87
2022/03/11 06:39:43;;;;;;;;;;;2.40;99.90;;;;;;6307198;22;20017;-91
2022/03/11 06:42:09;;;;;;;;;;;1.70;99.90;;;;;;6329975;22;19962;-85
2022/03/11 06:44:37;;;;;;;;;;;2.80;99.90;;;;;;6335275;22;19915;-87
2022/03/11 06:47:03;;;;;;;;;;;2.50;99.90;;;;;;6307368;22;19921;-89
2022/03/11 06:49:41;;;;;;;;;;;2.50;99.90;;;;;;6323742;22;20417;-87
2022/03/11 06:52:09;;;;;;;;;;;3.20;99.90;;;;;;6326707;22;20309;-86
2022/03/11 06:54:35;;;;;;;;;;;2.60;99.90;;;;;;6305071;22;20272;-89
2022/03/11 06:57:02;;;;;;;;;;;5.10;99.90;;;;;;6304721;22;20001;-87
2022/03/11 06:59:27;;;;;;;;;;;2.60;99.90;;;;;;6307567;22;19986;-86
2022/03/11 07:01:53;;;;;;;;;;;4.40;99.90;;;;;;6305927;22;19921;-86
2022/03/11 07:04:31;;;;;;;;;;;2.70;99.90;;;;;;6306177;22;19949;-87
2022/03/11 07:07:09;;;;;;;;;;;3.50;99.90;;;;;;6334530;22;19945;-88
2022/03/11 07:09:34;;;;;;;;;;;1.40;99.90;;;;;;6332907;22;20201;-90
2022/03/11 07:12:03;;;;;;;;;;;2.80;99.90;;;;;;6303054;22;20294;-89
2022/03/11 07:14:41;;;;;;;;;;;2.80;99.90;;;;;;6307635;22;19971;-88
2022/03/11 07:17:08;;;;;;;;;;;2.40;99.90;;;;;;6304801;22;19914;-88
2022/03/11 07:19:34;;;;;;;;;;;3.00;99.90;;;;;;6306202;22;19937;-88
2022/03/11 07:22:02;;;;;;;;;;;3.10;99.90;;;;;;6307851;22;19919;-87
2022/03/11 07:24:27;;;;;;;;;;;3.60;99.90;;;;;;6306266;22;19937;-86
2022/03/11 07:26:53;;;;;;;;;;;3.20;99.90;;;;;;6305914;22;20362;-87
2022/03/11 07:29:19;;;;;;;;;;;4.20;99.90;;;;;;6334758;22;20322;-87
2022/03/11 07:31:48;;;;;;;;;;;3.30;99.90;;;;;;6306323;22;20014;-85
2022/03/11 07:34:14;;;;;;;;;;;3.40;99.90;;;;;;6305694;22;20250;-89
2022/03/11 07:36:40;;;;;;;;;;;3.50;99.90;;;;;;6321377;22;19918;-85
2022/03/11 07:39:06;;;;;;;;;;;4.80;99.90;;;;;;6308712;22;19926;-86
2022/03/11 07:41:41;;;;;;;;;;;3.60;99.90;;;;;;6308040;22;19922;-85
2022/03/11 07:44:16;;;;;;;;;;;3.60;99.90;;;;;;6305224;22;19976;-87
2022/03/11 07:46:45;;;;;;;;;;;3.80;99.90;;;;;;6308060;22;19911;-88
2022/03/11 07:49:11;;;;;;;;;;;3.90;99.90;;;;;;6308148;22;19918;-84
2022/03/11 07:51:40;;;;;;;;;;;3.90;99.90;;;;;;6303937;22;19914;-85
2022/03/11 07:54:08;;;;;;;;;;;4.00;99.90;;;;;;6334246;22;19914;-83
2022/03/11 07:56:34;;;;;;;;;;;5.60;99.90;;;;;;6335639;22;20446;-86
2022/03/11 07:58:59;;;;;;;;;;;5.60;99.90;;;;;;6306907;22;20039;-85
2022/03/11 08:01:26;;;;;;;;;;;4.20;99.90;;;;;;6332935;22;20260;-85
2022/03/11 08:03:53;;;;;;;;;;;4.50;99.90;;;;;;6305875;22;19986;-84
2022/03/11 08:06:20;;;;;;;;;;;4.50;99.50;;;;;;6306253;22;19969;-82
2022/03/11 08:08:49;;;;;;;;;;;4.60;99.50;;;;;;6277573;22;19918;-84
2022/03/11 08:11:23;;;;;;;;;;;5.30;98.40;;;;;;6304029;22;19991;-86
2022/03/11 08:13:49;;;;;;;;;;;4.90;98.30;;;;;;6330986;22;19925;-84
2022/03/11 08:16:15;;;;;;;;;;;5.80;98.60;;;;;;6304972;22;19919;-85
2022/03/11 08:18:42;;;;;;;;;;;5.00;97.50;;;;;;6333737;22;20306;-85
2022/03/11 08:21:08;;;;;;;;;;;5.00;97.20;;;;;;6334757;22;19993;-86
2022/03/11 08:23:33;;;;;;;;;;;5.00;97.30;;;;;;6307040;22;19915;-84
2022/03/11 08:25:59;;;;;;;;;;;5.00;97.10;;;;;;6305189;22;20196;-85
2022/03/11 08:28:25;;;;;;;;;;;4.90;96.80;;;;;;6305690;22;19921;-83
2022/03/11 08:31:03;;;;;;;;;;;5.70;97.00;;;;;;6327958;22;19922;-82
2022/03/11 08:33:39;;;;;;;;;;;5.10;97.50;;;;;;6304733;22;19914;-83
2022/03/11 08:36:05;;;;;;;;;;;5.20;97.40;;;;;;6307076;22;20339;-85
2022/03/11 08:38:31;;;;;;;;;;;5.30;95.20;;;;;;6333605;22;20318;-84
2022/03/11 08:41:02;;;;;;;;;;;5.40;96.10;;;;;;6303373;22;19928;-85
2022/03/11 08:43:41;;;;;;;;;;;6.00;95.40;;;;;;6331698;22;19959;-85
2022/03/11 08:46:13;;;;;;;;;;;5.50;94.30;;;;;;6305254;22;20391;-90
2022/03/11 08:48:43;;;;;;;;;;;7.50;94.60;;;;;;6333764;22;19914;-83
2022/03/11 08:51:12;;;;;;;;;;;5.70;94.40;;;;;;6306736;22;19971;-92
2022/03/11 08:53:53;;;;;;;;;;;5.90;92.80;;;;;;6304507;22;19968;-88
2022/03/11 08:56:21;;;;;;;;;;;5.90;93.40;;;;;;6329146;22;19914;-86
2022/03/11 08:58:48;;;;;;;;;;;6.00;92.40;;;;;;6305942;22;19914;-86
2022/03/11 09:01:14;;;;;;;;;;;6.10;91.40;;;;;;6314671;22;20023;-89
2022/03/11 09:03:58;;;;;;;;;;;8.20;92.60;;;;;;6304705;22;19963;-86
2022/03/11 09:06:24;;;;;;;;;;;6.70;91.40;;;;;;6285050;22;19938;-87
2022/03/11 09:08:50;;;;;;;;;;;6.30;90.90;;;;;;6300486;22;20296;-82
2022/03/11 09:11:31;;;;;;;;;;;6.10;91.80;;;;;;6302438;22;19997;-89
2022/03/11 09:14:02;;;;;;;;;;;6.50;91.60;;;;;;6333434;22;19921;-89
2022/03/11 09:16:28;;;;;;;;;;;6.50;88.60;;;;;;6303441;22;19944;-87
2022/03/11 09:18:57;;;;;;;;;;;6.60;90.20;;;;;;6302917;22;19922;-89
2022/03/11 09:21:50;;;;;;;;;;;6.60;90.70;;;;;;6175123;23;19916;-89
2022/03/11 09:24:15;;;;;;;;;;;6.70;87.80;;;;;;6151635;23;19995;-87
2022/03/11 09:26:52;;;;;;;;;;;6.80;88.10;;;;;;6176859;23;19934;-88
2022/03/11 09:29:32;;;;;;;;;;;6.30;83.30;;;;;;6156343;23;20044;-91
2022/03/11 09:32:04;;;;;;;;;;;5.50;80.40;;;;;;6179308;23;19920;-85
2022/03/11 09:34:30;;;;;;;;;;;6.50;79.00;;;;;;6179180;23;20679;-86
2022/03/11 09:37:12;;;;;;;;;;;6.90;83.10;;;;;;6160277;23;20257;-92
2022/03/11 09:39:43;;;;;;;;;;;5.80;81.70;;;;;;6176008;23;20059;-88
2022/03/11 09:42:09;;;;;;;;;;;7.00;83.30;;;;;;6152617;23;20083;-86
2022/03/11 09:44:51;;;;;;;;;;;6.20;80.20;;;;;;6171602;23;19927;-89
2022/03/11 09:47:18;;;;;;;;;;;6.50;77.80;;;;;;6174369;23;19953;-84
2022/03/11 09:49:50;;;;;;;;;;;7.30;79.30;;;;;;6177470;23;19916;-89
2022/03/11 09:52:36;;;;;;;;;;;7.80;77.50;;;;;;6334659;22;19914;-88
2022/03/11 09:55:05;;;;;;;;;;;7.40;78.70;;;;;;6307642;22;19925;-90
2022/03/11 09:57:31;;;;;;;;;;;7.50;73.80;;;;;;6317296;22;19930;-90
2022/03/11 09:59:57;;;;;;;;;;;7.60;73.90;;;;;;6313475;22;19922;-89
2022/03/11 10:02:56;;;;;;;;;;;7.60;77.40;;;;;;6304212;22;19933;-89
2022/03/11 10:05:39;;;;;;;;;;;7.30;74.20;;;;;;6154930;23;19916;-87
2022/03/11 10:08:05;;;;;;;;;;;7.70;71.10;;;;;;6192133;22;19922;-90
2022/03/11 10:10:40;;;;;;;;;;;8.20;72.50;;;;;;6336189;22;19933;-87
2022/03/11 10:13:08;;;;;;;;;;;7.90;70.80;;;;;;6308990;22;19918;-88
2022/03/11 10:15:34;;;;;;;;;;;7.80;73.80;;;;;;6335643;22;19941;-88
2022/03/11 10:18:02;;;;;;;;;;;8.10;70.20;;;;;;6311016;22;20381;-87
2022/03/11 10:20:36;;;;;;;;;;;8.90;69.70;;;;;;6339554;22;19930;-89
2022/03/11 10:23:18;;;;;;;;;;;8.30;69.30;;;;;;6334500;22;19986;-88
2022/03/11 10:26:05;;;;;;;;;;;8.40;70.00;;;;;;6310152;22;20247;-87
2022/03/11 10:28:40;;;;;;;;;;;8.60;69.60;;;;;;6308066;22;19922;-90
2022/03/11 10:31:11;;;;;;;;;;;8.80;68.30;;;;;;6315135;22;19973;-89
2022/03/11 10:33:37;;;;;;;;;;;9.00;68.00;;;;;;6322395;22;19914;-89
2022/03/11 10:36:25;;;;;;;;;;;9.10;65.60;;;;;;6323991;22;19938;-87
2022/03/11 10:38:51;;;;;;;;;;;9.20;64.70;;;;;;6356633;22;19902;-90
2022/03/11 10:41:17;;;;;;;;;;;9.10;65.40;;;;;;6319132;22;19941;-89
2022/03/11 10:44:02;;;;;;;;;;;9.10;64.80;;;;;;6312949;22;19919;-91
2022/03/11 10:46:28;;;;;;;;;;;9.10;65.50;;;;;;6309298;22;20238;-89
2022/03/11 10:48:56;;;;;;;;;;;9.50;63.50;;;;;;6307743;22;19918;-90
2022/03/11 10:51:40;;;;;;;;;;;9.10;62.30;;;;;;6308838;22;19924;-88
2022/03/11 10:54:07;;;;;;;;;;;9.10;63.20;;;;;;6308745;22;20330;-91
2022/03/11 10:56:40;;;;;;;;;;;9.30;63.90;;;;;;6308155;22;19998;-87
2022/03/11 10:59:12;;;;;;;;;;;9.40;64.00;;;;;;6306869;22;19953;-87
2022/03/11 11:01:44;;;;;;;;;;;9.60;61.50;;;;;;6307636;22;19954;-89
2022/03/11 11:04:28;;;;;;;;;;;9.80;62.00;;;;;;6314577;22;19942;-92
2022/03/11 11:06:57;;;;;;;;;;;10.10;60.20;;;;;;6310468;22;19989;-91
2022/03/11 11:09:23;;;;;;;;;;;10.00;60.10;;;;;;6342613;22;19994;-88
2022/03/11 11:11:50;;;;;;;;;;;10.30;60.90;;;;;;6308387;22;20055;-93
2022/03/11 11:14:18;;;;;;;;;;;10.80;60.40;;;;;;6308361;22;19922;-91
2022/03/11 11:16:50;;;;;;;;;;;10.10;59.80;;;;;;6309259;22;20279;-89
2022/03/11 11:19:17;;;;;;;;;;;9.40;58.60;;;;;;6309906;22;19940;-92
2022/03/11 11:21:47;;;;;;;;;;;10.30;58.50;;;;;;6335924;22;19941;-93
2022/03/11 11:24:33;;;;;;;;;;;10.40;58.70;;;;;;6311828;22;19915;-90
2022/03/11 11:26:59;;;;;;;;;;;10.50;57.30;;;;;;6308675;22;19953;-88
2022/03/11 11:29:26;;;;;;;;;;;11.40;59.60;;;;;;6305653;22;19914;-86
2022/03/11 11:32:07;;;;;;;;;;;10.90;60.70;;;;;;6306044;22;19921;-88
2022/03/11 11:34:42;;;;;;;;;;;10.80;56.90;;;;;;6306041;22;19914;-86
2022/03/11 11:37:28;;;;;;;;;;;11.10;58.80;;;;;;6307273;22;19978;-92
2022/03/11 11:40:23;;;;;;;;;;;11.10;56.10;;;;;;6338753;22;19944;-89
2022/03/11 11:43:07;;;;;;;;;;;11.30;56.00;;;;;;6314188;22;19914;-87
2022/03/11 11:45:50;;;;;;;;;;;11.30;55.70;;;;;;6347958;22;19914;-90
2022/03/11 11:48:31;;;;;;;;;;;11.40;58.80;;;;;;6318298;22;19952;-86
2022/03/11 11:50:57;;;;;;;;;;;11.50;56.00;;;;;;6340098;22;19914;-88
2022/03/11 11:53:40;;;;;;;;;;;11.70;54.10;;;;;;6312830;22;19922;-87
2022/03/11 11:56:25;;;;;;;;;;;11.60;55.70;;;;;;6311728;22;19918;-88
2022/03/11 11:58:56;;;;;;;;;;;11.70;54.80;;;;;;6310909;22;19915;-88
2022/03/11 12:01:40;;;;;;;;;;;12.10;55.50;;;;;;6313380;22;20327;-91
2022/03/11 12:04:28;;;;;;;;;;;11.90;55.50;;;;;;6347508;22;20418;-87
2022/03/11 12:06:57;;;;;;;;;;;12.00;53.50;;;;;;6336075;22;20007;-93
2022/03/11 12:09:37;;;;;;;;;;;12.00;54.10;;;;;;6317507;22;19985;-87
2022/03/11 12:12:30;;;;;;;;;;;12.10;53.50;;;;;;6315047;22;19949;-88
2022/03/11 12:15:05;;;;;;;;;;;12.10;53.70;;;;;;6340241;22;19943;-87
2022/03/11 12:17:44;;;;;;;;;;;12.20;52.60;;;;;;6306659;22;19967;-88
2022/03/11 12:20:26;;;;;;;;;;;12.10;52.60;;;;;;6308019;22;20356;-84
2022/03/11 12:23:00;;;;;;;;;;;12.10;52.90;;;;;;6311001;22;19914;-90
2022/03/11 12:25:27;;;;;;;;;;;12.00;52.50;;;;;;6308291;22;20322;-93
2022/03/11 12:27:59;;;;;;;;;;;12.20;51.20;;;;;;6307179;22;19945;-92
2022/03/11 12:30:41;;;;;;;;;;;12.40;52.10;;;;;;6311197;22;19990;-94
2022/03/11 12:33:08;;;;;;;;;;;12.50;50.60;;;;;;6312183;22;20007;-89
2022/03/11 12:35:34;;;;;;;;;;;12.70;50.40;;;;;;6307520;22;19919;-88
2022/03/11 12:38:00;;;;;;;;;;;13.20;51.90;;;;;;6305466;22;20223;-90
2022/03/11 12:40:26;;;;;;;;;;;13.00;51.10;;;;;;6307124;22;19918;-88
2022/03/11 12:42:59;;;;;;;;;;;13.20;49.60;;;;;;6336513;22;20000;-87
2022/03/11 12:45:31;;;;;;;;;;;13.40;49.50;;;;;;6308081;22;19926;-92
2022/03/11 12:47:57;;;;;;;;;;;13.70;48.00;;;;;;6306491;22;20047;-89
2022/03/11 12:50:23;;;;;;;;;;;14.00;48.50;;;;;;6334154;22;19953;-84
2022/03/11 12:52:49;;;;;;;;;;;14.50;48.90;;;;;;6307742;22;19915;-89
2022/03/11 12:55:20;;;;;;;;;;;15.00;47.90;;;;;;6333430;22;19932;-89
2022/03/11 12:57:50;;;;;;;;;;;15.40;47.90;;;;;;6306970;22;19972;-87
2022/03/11 13:00:42;;;;;;;;;;;15.70;46.00;;;;;;6306648;22;19946;-90
2022/03/11 13:03:09;;;;;;;;;;;15.60;45.30;;;;;;6306364;22;19933;-91
2022/03/11 13:05:56;;;;;;;;;;;15.70;45.60;;;;;;6314295;22;19922;-92
2022/03/11 13:08:21;;;;;;;;;;;16.00;44.30;;;;;;6314110;22;19983;-87
2022/03/11 13:10:49;;;;;;;;;;;15.90;43.90;;;;;;6314876;22;20354;-87
2022/03/11 13:13:33;;;;;;;;;;;14.90;44.00;;;;;;6355225;22;19971;-88
2022/03/11 13:16:00;;;;;;;;;;;14.00;45.80;;;;;;6329366;22;19915;-88
2022/03/11 13:18:48;;;;;;;;;;;12.40;48.10;;;;;;6325738;22;19925;-88
2022/03/11 13:21:18;;;;;;;;;;;12.50;48.10;;;;;;6339683;22;19915;-90
2022/03/11 13:23:46;;;;;;;;;;;12.90;47.70;;;;;;6309441;22;19960;-92
2022/03/11 13:26:19;;;;;;;;;;;12.70;48.40;;;;;;6311476;22;19924;-89
2022/03/11 13:28:45;;;;;;;;;;;12.50;48.40;;;;;;6309131;22;19959;-86
2022/03/11 13:31:15;;;;;;;;;;;12.40;48.00;;;;;;6311110;22;19968;-93
2022/03/11 13:33:43;;;;;;;;;;;12.40;49.60;;;;;;6315725;22;19915;-94
2022/03/11 13:36:20;;;;;;;;;;;12.50;49.10;;;;;;6312026;22;19990;-86
2022/03/11 13:39:04;;;;;;;;;;;12.30;47.10;;;;;;6306541;22;19985;-91
2022/03/11 13:41:32;;;;;;;;;;;13.10;47.10;;;;;;6306800;22;19918;-88
2022/03/11 13:43:59;;;;;;;;;;;12.90;46.70;;;;;;6336066;22;19946;-92
2022/03/11 13:46:46;;;;;;;;;;;12.60;45.40;;;;;;6311804;22;19910;-88
2022/03/11 13:49:26;;;;;;;;;;;12.50;46.40;;;;;;6156627;23;19936;-93
2022/03/11 13:52:13;;;;;;;;;;;11.80;47.80;;;;;;6027413;23;20331;-92
2022/03/11 13:54:40;;;;;;;;;;;12.50;47.80;;;;;;6118439;23;20223;-92
2022/03/11 13:57:32;;;;;;;;;;;12.90;47.50;;;;;;6259931;22;19918;-90
2022/03/11 13:59:59;;;;;;;;;;;12.40;46.80;;;;;;6309121;22;19915;-90
2022/03/11 14:02:33;;;;;;;;;;;12.30;47.30;;;;;;6308024;22;20271;-90
2022/03/11 14:05:16;;;;;;;;;;;12.20;47.30;;;;;;6338029;22;19960;-92
2022/03/11 14:07:45;;;;;;;;;;;12.10;47.00;;;;;;6310715;22;20377;-93
2022/03/11 14:10:27;;;;;;;;;;;12.20;47.50;;;;;;6308912;22;19922;-91
2022/03/11 14:13:16;;;;;;;;;;;12.10;45.50;;;;;;6309675;22;19940;-88
2022/03/11 14:15:49;;;;;;;;;;;12.10;45.70;;;;;;6308842;22;19950;-89
2022/03/11 14:18:15;;;;;;;;;;;12.10;47.70;;;;;;6308573;22;20341;-90
2022/03/11 14:20:42;;;;;;;;;;;12.10;46.10;;;;;;6308160;22;19929;-87
2022/03/11 14:23:08;;;;;;;;;;;12.10;45.70;;;;;;6307206;22;19919;-89
2022/03/11 14:25:49;;;;;;;;;;;12.60;47.40;;;;;;6309552;22;19922;-88
2022/03/11 14:28:15;;;;;;;;;;;12.10;45.40;;;;;;6289344;22;19923;-91
2022/03/11 14:30:40;;;;;;;;;;;12.10;46.00;;;;;;6315586;22;19918;-91
2022/03/11 14:33:29;;;;;;;;;;;12.20;45.10;;;;;;6307822;22;19944;-92
2022/03/11 14:35:55;;;;;;;;;;;12.00;46.00;;;;;;6307896;22;19915;-86
2022/03/11 14:41:11;;;;;;;;;;;12.00;46.20;;;;;;6308246;22;19915;-87
2022/03/11 14:43:36;;;;;;;;;;;12.90;46.00;;;;;;6305830;22;19980;-87
2022/03/11 14:46:24;;;;;;;;;;;12.00;45.20;;;;;;6302526;22;19922;-88
2022/03/11 14:48:52;;;;;;;;;;;11.70;44.90;;;;;;6302222;22;20444;-88
2022/03/11 14:51:18;;;;;;;;;;;12.00;45.40;;;;;;6304914;22;19994;-90
2022/03/11 14:53:44;;;;;;;;;;;11.30;44.20;;;;;;6304736;22;20283;-90
2022/03/11 14:56:12;;;;;;;;;;;12.00;44.60;;;;;;6301900;22;20008;-92
2022/03/11 14:58:38;;;;;;;;;;;12.30;45.00;;;;;;6305907;22;19934;-91
2022/03/11 15:01:03;;;;;;;;;;;12.50;45.40;;;;;;6303657;22;19961;-90
2022/03/11 15:03:44;;;;;;;;;;;12.30;44.40;;;;;;6304478;22;20001;-92
2022/03/11 15:06:27;;;;;;;;;;;12.00;45.30;;;;;;6302819;22;19925;-84